sensor_id;sensor_type;location;lat;lon;timestamp;P1;durP1;ratioP1;P2;durP2;ratioP2
6531;SDS011;3299;42.004;24.868;2022-11-06T00:01:21;15.38;;;11.52;;
6531;SDS011;3299;42.004;24.868;2022-11-06T00:03:46;23.10;;;12.80;;
6531;SDS011;3299;42.004;24.868;2022-11-06T00:06:13;17.30;;;10.75;;
6531;SDS011;3299;42.004;24.868;2022-11-06T00:08:59;20.15;;;11.45;;
6531;SDS011;3299;42.004;24.868;2022-11-06T00:11:26;16.83;;;10.63;;
6531;SDS011;3299;42.004;24.868;2022-11-06T00:13:52;15.13;;;10.40;;
6531;SDS011;3299;42.004;24.868;2022-11-06T00:16:18;16.50;;;11.13;;
6531;SDS011;3299;42.004;24.868;2022-11-06T00:18:44;13.43;;;9.75;;
6531;SDS011;3299;42.004;24.868;2022-11-06T00:23:38;13.00;;;9.52;;
6531;SDS011;3299;42.004;24.868;2022-11-06T00:26:07;14.05;;;9.15;;
6531;SDS011;3299;42.004;24.868;2022-11-06T00:28:34;13.70;;;9.65;;
6531;SDS011;3299;42.004;24.868;2022-11-06T00:31:04;16.08;;;8.85;;
6531;SDS011;3299;42.004;24.868;2022-11-06T00:33:31;17.08;;;9.68;;
6531;SDS011;3299;42.004;24.868;2022-11-06T00:35:57;15.75;;;9.98;;
6531;SDS011;3299;42.004;24.868;2022-11-06T00:38:22;17.33;;;11.07;;
6531;SDS011;3299;42.004;24.868;2022-11-06T00:40:48;16.52;;;10.10;;
6531;SDS011;3299;42.004;24.868;2022-11-06T00:43:13;18.23;;;10.88;;
6531;SDS011;3299;42.004;24.868;2022-11-06T00:45:39;18.65;;;12.07;;
6531;SDS011;3299;42.004;24.868;2022-11-06T00:48:04;14.57;;;10.95;;
6531;SDS011;3299;42.004;24.868;2022-11-06T00:50:30;18.08;;;12.00;;
6531;SDS011;3299;42.004;24.868;2022-11-06T00:52:56;34.42;;;18.75;;
6531;SDS011;3299;42.004;24.868;2022-11-06T00:55:21;22.23;;;13.18;;
6531;SDS011;3299;42.004;24.868;2022-11-06T00:57:47;25.15;;;16.05;;
6531;SDS011;3299;42.004;24.868;2022-11-06T01:00:12;27.10;;;18.10;;
6531;SDS011;3299;42.004;24.868;2022-11-06T01:02:38;30.42;;;18.75;;
6531;SDS011;3299;42.004;24.868;2022-11-06T01:05:04;43.17;;;24.67;;
6531;SDS011;3299;42.004;24.868;2022-11-06T01:07:29;40.53;;;24.17;;
6531;SDS011;3299;42.004;24.868;2022-11-06T01:09:55;52.17;;;28.23;;
6531;SDS011;3299;42.004;24.868;2022-11-06T01:12:20;48.40;;;27.73;;
6531;SDS011;3299;42.004;24.868;2022-11-06T01:14:46;49.85;;;29.27;;
6531;SDS011;3299;42.004;24.868;2022-11-06T01:17:11;32.13;;;21.27;;
6531;SDS011;3299;42.004;24.868;2022-11-06T01:19:37;38.10;;;22.10;;
6531;SDS011;3299;42.004;24.868;2022-11-06T01:22:03;37.20;;;22.63;;
6531;SDS011;3299;42.004;24.868;2022-11-06T01:24:28;38.75;;;21.73;;
6531;SDS011;3299;42.004;24.868;2022-11-06T01:26:54;42.25;;;22.58;;
6531;SDS011;3299;42.004;24.868;2022-11-06T01:29:20;44.78;;;24.83;;
6531;SDS011;3299;42.004;24.868;2022-11-06T01:31:46;43.63;;;25.33;;
6531;SDS011;3299;42.004;24.868;2022-11-06T01:34:14;42.33;;;26.30;;
6531;SDS011;3299;42.004;24.868;2022-11-06T01:36:40;56.30;;;25.80;;
6531;SDS011;3299;42.004;24.868;2022-11-06T01:39:07;27.88;;;18.33;;
6531;SDS011;3299;42.004;24.868;2022-11-06T01:41:37;20.45;;;15.38;;
6531;SDS011;3299;42.004;24.868;2022-11-06T01:47:00;28.95;;;19.85;;
6531;SDS011;3299;42.004;24.868;2022-11-06T01:49:26;35.13;;;21.52;;
6531;SDS011;3299;42.004;24.868;2022-11-06T01:51:56;29.38;;;20.40;;
6531;SDS011;3299;42.004;24.868;2022-11-06T01:54:23;33.83;;;22.33;;
6531;SDS011;3299;42.004;24.868;2022-11-06T01:56:52;38.90;;;24.33;;
6531;SDS011;3299;42.004;24.868;2022-11-06T01:59:21;41.63;;;24.08;;
6531;SDS011;3299;42.004;24.868;2022-11-06T02:01:49;42.22;;;25.63;;
6531;SDS011;3299;42.004;24.868;2022-11-06T02:06:45;43.95;;;29.02;;
6531;SDS011;3299;42.004;24.868;2022-11-06T02:09:11;37.65;;;24.02;;
6531;SDS011;3299;42.004;24.868;2022-11-06T02:11:37;37.13;;;21.50;;
6531;SDS011;3299;42.004;24.868;2022-11-06T02:14:08;38.83;;;24.02;;
6531;SDS011;3299;42.004;24.868;2022-11-06T02:16:53;47.25;;;27.05;;
6531;SDS011;3299;42.004;24.868;2022-11-06T02:22:08;42.10;;;26.35;;
6531;SDS011;3299;42.004;24.868;2022-11-06T02:24:54;41.63;;;25.08;;
6531;SDS011;3299;42.004;24.868;2022-11-06T02:27:28;40.90;;;23.77;;
6531;SDS011;3299;42.004;24.868;2022-11-06T02:29:57;43.75;;;23.15;;
6531;SDS011;3299;42.004;24.868;2022-11-06T02:37:49;37.65;;;23.33;;
6531;SDS011;3299;42.004;24.868;2022-11-06T02:40:19;35.05;;;21.75;;
6531;SDS011;3299;42.004;24.868;2022-11-06T02:42:47;34.08;;;22.02;;
6531;SDS011;3299;42.004;24.868;2022-11-06T02:45:17;38.08;;;21.02;;
6531;SDS011;3299;42.004;24.868;2022-11-06T02:47:45;33.92;;;20.92;;
6531;SDS011;3299;42.004;24.868;2022-11-06T02:50:18;32.58;;;20.50;;
6531;SDS011;3299;42.004;24.868;2022-11-06T02:55:33;35.67;;;21.35;;
6531;SDS011;3299;42.004;24.868;2022-11-06T02:58:04;36.40;;;21.10;;
6531;SDS011;3299;42.004;24.868;2022-11-06T03:00:33;37.78;;;23.85;;
6531;SDS011;3299;42.004;24.868;2022-11-06T03:03:23;38.33;;;22.58;;
6531;SDS011;3299;42.004;24.868;2022-11-06T03:08:38;38.75;;;23.63;;
6531;SDS011;3299;42.004;24.868;2022-11-06T03:14:13;40.83;;;23.92;;
6531;SDS011;3299;42.004;24.868;2022-11-06T03:17:14;43.40;;;25.92;;
6531;SDS011;3299;42.004;24.868;2022-11-06T03:20:00;43.05;;;25.40;;
6531;SDS011;3299;42.004;24.868;2022-11-06T03:25:23;38.80;;;23.98;;
6531;SDS011;3299;42.004;24.868;2022-11-06T03:28:02;38.20;;;24.23;;
6531;SDS011;3299;42.004;24.868;2022-11-06T03:30:42;38.22;;;25.20;;
6531;SDS011;3299;42.004;24.868;2022-11-06T03:33:16;42.40;;;23.95;;
6531;SDS011;3299;42.004;24.868;2022-11-06T03:35:51;35.80;;;23.58;;
6531;SDS011;3299;42.004;24.868;2022-11-06T03:38:26;37.30;;;24.02;;
6531;SDS011;3299;42.004;24.868;2022-11-06T03:40:58;36.97;;;23.38;;
6531;SDS011;3299;42.004;24.868;2022-11-06T03:43:30;35.58;;;22.10;;
6531;SDS011;3299;42.004;24.868;2022-11-06T03:46:00;40.67;;;22.40;;
6531;SDS011;3299;42.004;24.868;2022-11-06T03:48:42;32.58;;;19.73;;
6531;SDS011;3299;42.004;24.868;2022-11-06T03:51:16;37.60;;;21.98;;
6531;SDS011;3299;42.004;24.868;2022-11-06T03:53:52;34.42;;;21.05;;
6531;SDS011;3299;42.004;24.868;2022-11-06T03:56:40;32.53;;;20.55;;
6531;SDS011;3299;42.004;24.868;2022-11-06T03:59:19;32.50;;;18.80;;
6531;SDS011;3299;42.004;24.868;2022-11-06T04:01:52;33.08;;;20.25;;
6531;SDS011;3299;42.004;24.868;2022-11-06T04:04:23;30.73;;;19.00;;
6531;SDS011;3299;42.004;24.868;2022-11-06T04:07:14;28.80;;;17.85;;
6531;SDS011;3299;42.004;24.868;2022-11-06T04:09:44;32.30;;;19.90;;
6531;SDS011;3299;42.004;24.868;2022-11-06T04:12:33;31.13;;;20.67;;
6531;SDS011;3299;42.004;24.868;2022-11-06T04:15:20;31.80;;;19.13;;
6531;SDS011;3299;42.004;24.868;2022-11-06T04:17:46;31.90;;;21.08;;
6531;SDS011;3299;42.004;24.868;2022-11-06T04:20:14;33.08;;;19.73;;
6531;SDS011;3299;42.004;24.868;2022-11-06T04:23:24;33.30;;;19.67;;
6531;SDS011;3299;42.004;24.868;2022-11-06T04:26:05;26.25;;;17.77;;
6531;SDS011;3299;42.004;24.868;2022-11-06T04:32:02;29.10;;;20.00;;
6531;SDS011;3299;42.004;24.868;2022-11-06T04:34:45;36.00;;;21.63;;
6531;SDS011;3299;42.004;24.868;2022-11-06T04:42:33;39.95;;;22.73;;
6531;SDS011;3299;42.004;24.868;2022-11-06T04:45:02;40.28;;;22.40;;
6531;SDS011;3299;42.004;24.868;2022-11-06T04:47:30;34.50;;;20.77;;
6531;SDS011;3299;42.004;24.868;2022-11-06T04:49:57;36.17;;;22.33;;
6531;SDS011;3299;42.004;24.868;2022-11-06T04:52:26;34.15;;;22.17;;
6531;SDS011;3299;42.004;24.868;2022-11-06T04:54:53;34.25;;;20.10;;
6531;SDS011;3299;42.004;24.868;2022-11-06T04:57:21;32.40;;;19.92;;
6531;SDS011;3299;42.004;24.868;2022-11-06T04:59:47;35.70;;;20.88;;
6531;SDS011;3299;42.004;24.868;2022-11-06T05:02:12;39.80;;;23.88;;
6531;SDS011;3299;42.004;24.868;2022-11-06T05:04:38;37.97;;;24.40;;
6531;SDS011;3299;42.004;24.868;2022-11-06T05:07:03;44.05;;;25.10;;
6531;SDS011;3299;42.004;24.868;2022-11-06T05:09:28;56.10;;;31.95;;
6531;SDS011;3299;42.004;24.868;2022-11-06T05:11:54;42.50;;;24.88;;
6531;SDS011;3299;42.004;24.868;2022-11-06T05:14:20;55.00;;;31.98;;
6531;SDS011;3299;42.004;24.868;2022-11-06T05:16:45;49.13;;;29.02;;
6531;SDS011;3299;42.004;24.868;2022-11-06T05:19:10;50.35;;;31.48;;
6531;SDS011;3299;42.004;24.868;2022-11-06T05:21:36;60.72;;;35.15;;
6531;SDS011;3299;42.004;24.868;2022-11-06T05:24:20;57.38;;;33.78;;
6531;SDS011;3299;42.004;24.868;2022-11-06T05:26:45;60.67;;;36.85;;
6531;SDS011;3299;42.004;24.868;2022-11-06T05:29:11;55.85;;;35.72;;
6531;SDS011;3299;42.004;24.868;2022-11-06T05:31:37;60.30;;;35.75;;
6531;SDS011;3299;42.004;24.868;2022-11-06T05:34:02;55.28;;;35.63;;
6531;SDS011;3299;42.004;24.868;2022-11-06T05:36:28;58.65;;;35.58;;
6531;SDS011;3299;42.004;24.868;2022-11-06T05:38:53;52.63;;;33.83;;
6531;SDS011;3299;42.004;24.868;2022-11-06T05:41:19;52.65;;;34.17;;
6531;SDS011;3299;42.004;24.868;2022-11-06T05:43:44;54.60;;;32.70;;
6531;SDS011;3299;42.004;24.868;2022-11-06T05:46:09;56.20;;;34.88;;
6531;SDS011;3299;42.004;24.868;2022-11-06T05:48:35;54.45;;;32.05;;
6531;SDS011;3299;42.004;24.868;2022-11-06T05:51:04;53.53;;;31.67;;
6531;SDS011;3299;42.004;24.868;2022-11-06T05:53:31;49.67;;;31.13;;
6531;SDS011;3299;42.004;24.868;2022-11-06T05:55:58;48.63;;;30.73;;
6531;SDS011;3299;42.004;24.868;2022-11-06T05:58:23;48.63;;;31.25;;
6531;SDS011;3299;42.004;24.868;2022-11-06T06:00:49;52.33;;;31.60;;
6531;SDS011;3299;42.004;24.868;2022-11-06T06:03:14;49.78;;;31.95;;
6531;SDS011;3299;42.004;24.868;2022-11-06T06:05:40;55.75;;;33.15;;
6531;SDS011;3299;42.004;24.868;2022-11-06T06:08:05;54.63;;;30.98;;
6531;SDS011;3299;42.004;24.868;2022-11-06T06:10:31;51.78;;;30.95;;
6531;SDS011;3299;42.004;24.868;2022-11-06T06:12:56;52.80;;;29.98;;
6531;SDS011;3299;42.004;24.868;2022-11-06T06:15:22;49.65;;;30.13;;
6531;SDS011;3299;42.004;24.868;2022-11-06T06:17:47;51.33;;;31.58;;
6531;SDS011;3299;42.004;24.868;2022-11-06T06:20:13;47.28;;;28.98;;
6531;SDS011;3299;42.004;24.868;2022-11-06T06:22:38;53.47;;;29.23;;
6531;SDS011;3299;42.004;24.868;2022-11-06T06:25:04;45.55;;;29.42;;
6531;SDS011;3299;42.004;24.868;2022-11-06T06:27:30;44.60;;;29.02;;
6531;SDS011;3299;42.004;24.868;2022-11-06T06:29:56;45.85;;;29.33;;
6531;SDS011;3299;42.004;24.868;2022-11-06T06:32:21;52.67;;;29.17;;
6531;SDS011;3299;42.004;24.868;2022-11-06T06:34:46;56.58;;;34.25;;
6531;SDS011;3299;42.004;24.868;2022-11-06T06:37:12;56.17;;;32.78;;
6531;SDS011;3299;42.004;24.868;2022-11-06T06:39:37;60.65;;;33.13;;
6531;SDS011;3299;42.004;24.868;2022-11-06T06:42:03;56.22;;;33.95;;
6531;SDS011;3299;42.004;24.868;2022-11-06T06:44:28;51.15;;;32.60;;
6531;SDS011;3299;42.004;24.868;2022-11-06T06:46:54;56.70;;;31.80;;
6531;SDS011;3299;42.004;24.868;2022-11-06T06:49:19;53.97;;;33.40;;
6531;SDS011;3299;42.004;24.868;2022-11-06T06:51:48;54.10;;;33.67;;
6531;SDS011;3299;42.004;24.868;2022-11-06T06:54:13;59.40;;;33.90;;
6531;SDS011;3299;42.004;24.868;2022-11-06T06:56:39;58.15;;;33.55;;
6531;SDS011;3299;42.004;24.868;2022-11-06T06:59:05;51.15;;;32.30;;
6531;SDS011;3299;42.004;24.868;2022-11-06T07:01:31;61.20;;;33.58;;
6531;SDS011;3299;42.004;24.868;2022-11-06T07:03:57;58.58;;;34.65;;
6531;SDS011;3299;42.004;24.868;2022-11-06T07:06:22;43.33;;;25.00;;
6531;SDS011;3299;42.004;24.868;2022-11-06T07:08:48;40.90;;;24.48;;
6531;SDS011;3299;42.004;24.868;2022-11-06T07:11:14;34.85;;;23.50;;
6531;SDS011;3299;42.004;24.868;2022-11-06T07:13:39;36.60;;;23.65;;
6531;SDS011;3299;42.004;24.868;2022-11-06T07:16:06;43.50;;;25.00;;
6531;SDS011;3299;42.004;24.868;2022-11-06T07:18:33;37.20;;;23.15;;
6531;SDS011;3299;42.004;24.868;2022-11-06T07:20:59;37.20;;;22.30;;
6531;SDS011;3299;42.004;24.868;2022-11-06T07:23:24;37.28;;;21.75;;
6531;SDS011;3299;42.004;24.868;2022-11-06T07:25:50;34.28;;;21.08;;
6531;SDS011;3299;42.004;24.868;2022-11-06T07:28:18;35.03;;;19.77;;
6531;SDS011;3299;42.004;24.868;2022-11-06T07:30:43;34.30;;;21.63;;
6531;SDS011;3299;42.004;24.868;2022-11-06T07:33:08;29.48;;;21.13;;
6531;SDS011;3299;42.004;24.868;2022-11-06T07:35:34;35.85;;;21.30;;
6531;SDS011;3299;42.004;24.868;2022-11-06T07:38:02;35.40;;;21.52;;
6531;SDS011;3299;42.004;24.868;2022-11-06T07:40:29;31.70;;;22.02;;
6531;SDS011;3299;42.004;24.868;2022-11-06T07:42:54;36.20;;;22.63;;
6531;SDS011;3299;42.004;24.868;2022-11-06T07:45:20;36.47;;;22.40;;
6531;SDS011;3299;42.004;24.868;2022-11-06T07:47:45;36.40;;;24.98;;
6531;SDS011;3299;42.004;24.868;2022-11-06T07:50:11;38.05;;;23.85;;
6531;SDS011;3299;42.004;24.868;2022-11-06T07:52:36;37.13;;;25.45;;
6531;SDS011;3299;42.004;24.868;2022-11-06T07:55:01;40.75;;;23.92;;
6531;SDS011;3299;42.004;24.868;2022-11-06T07:57:27;39.53;;;25.02;;
6531;SDS011;3299;42.004;24.868;2022-11-06T07:59:52;40.03;;;22.80;;
6531;SDS011;3299;42.004;24.868;2022-11-06T08:02:18;35.28;;;24.73;;
6531;SDS011;3299;42.004;24.868;2022-11-06T08:04:43;42.53;;;23.70;;
6531;SDS011;3299;42.004;24.868;2022-11-06T08:07:09;35.90;;;23.00;;
6531;SDS011;3299;42.004;24.868;2022-11-06T08:09:34;42.95;;;23.40;;
6531;SDS011;3299;42.004;24.868;2022-11-06T08:11:59;35.90;;;23.10;;
6531;SDS011;3299;42.004;24.868;2022-11-06T08:14:25;41.15;;;24.08;;
6531;SDS011;3299;42.004;24.868;2022-11-06T08:16:51;42.40;;;25.67;;
6531;SDS011;3299;42.004;24.868;2022-11-06T08:19:16;44.55;;;25.92;;
6531;SDS011;3299;42.004;24.868;2022-11-06T08:21:42;43.72;;;25.15;;
6531;SDS011;3299;42.004;24.868;2022-11-06T08:24:07;39.88;;;26.08;;
6531;SDS011;3299;42.004;24.868;2022-11-06T08:26:33;46.13;;;25.65;;
6531;SDS011;3299;42.004;24.868;2022-11-06T08:28:58;47.00;;;25.75;;
6531;SDS011;3299;42.004;24.868;2022-11-06T08:31:24;43.33;;;27.33;;
6531;SDS011;3299;42.004;24.868;2022-11-06T08:33:50;43.83;;;27.63;;
6531;SDS011;3299;42.004;24.868;2022-11-06T08:36:15;41.58;;;27.05;;
6531;SDS011;3299;42.004;24.868;2022-11-06T08:38:41;50.83;;;29.38;;
6531;SDS011;3299;42.004;24.868;2022-11-06T08:41:07;48.40;;;31.05;;
6531;SDS011;3299;42.004;24.868;2022-11-06T08:43:34;48.92;;;30.27;;
6531;SDS011;3299;42.004;24.868;2022-11-06T08:46:01;56.05;;;32.97;;
6531;SDS011;3299;42.004;24.868;2022-11-06T08:48:27;51.25;;;32.00;;
6531;SDS011;3299;42.004;24.868;2022-11-06T08:50:52;44.47;;;29.80;;
6531;SDS011;3299;42.004;24.868;2022-11-06T08:53:18;50.22;;;30.50;;
6531;SDS011;3299;42.004;24.868;2022-11-06T08:55:43;50.65;;;32.47;;
6531;SDS011;3299;42.004;24.868;2022-11-06T08:58:09;58.78;;;33.10;;
6531;SDS011;3299;42.004;24.868;2022-11-06T09:00:34;54.17;;;33.90;;
6531;SDS011;3299;42.004;24.868;2022-11-06T09:03:02;59.25;;;34.85;;
6531;SDS011;3299;42.004;24.868;2022-11-06T09:05:29;60.03;;;35.15;;
6531;SDS011;3299;42.004;24.868;2022-11-06T09:07:58;53.63;;;33.90;;
6531;SDS011;3299;42.004;24.868;2022-11-06T09:10:25;52.95;;;33.25;;
6531;SDS011;3299;42.004;24.868;2022-11-06T09:12:51;51.65;;;35.30;;
6531;SDS011;3299;42.004;24.868;2022-11-06T09:15:16;55.08;;;33.13;;
6531;SDS011;3299;42.004;24.868;2022-11-06T09:17:47;55.42;;;33.60;;
6531;SDS011;3299;42.004;24.868;2022-11-06T09:20:15;62.78;;;40.13;;
6531;SDS011;3299;42.004;24.868;2022-11-06T09:22:43;53.13;;;35.40;;
6531;SDS011;3299;42.004;24.868;2022-11-06T09:25:09;66.72;;;44.95;;
6531;SDS011;3299;42.004;24.868;2022-11-06T09:28:08;34.88;;;24.77;;
6531;SDS011;3299;42.004;24.868;2022-11-06T09:30:28;37.85;;;25.98;;
6531;SDS011;3299;42.004;24.868;2022-11-06T09:32:55;45.60;;;30.67;;
6531;SDS011;3299;42.004;24.868;2022-11-06T09:35:24;48.63;;;31.27;;
6531;SDS011;3299;42.004;24.868;2022-11-06T09:37:50;56.55;;;33.63;;
6531;SDS011;3299;42.004;24.868;2022-11-06T09:40:20;57.15;;;35.45;;
6531;SDS011;3299;42.004;24.868;2022-11-06T09:45:42;53.13;;;35.83;;
6531;SDS011;3299;42.004;24.868;2022-11-06T09:48:22;55.65;;;36.83;;
6531;SDS011;3299;42.004;24.868;2022-11-06T09:50:57;51.15;;;33.85;;
6531;SDS011;3299;42.004;24.868;2022-11-06T09:53:59;53.83;;;34.53;;
6531;SDS011;3299;42.004;24.868;2022-11-06T09:56:28;69.53;;;44.40;;
6531;SDS011;3299;42.004;24.868;2022-11-06T09:58:57;95.40;;;60.47;;
6531;SDS011;3299;42.004;24.868;2022-11-06T10:01:40;74.50;;;46.33;;
6531;SDS011;3299;42.004;24.868;2022-11-06T10:04:13;64.60;;;39.95;;
6531;SDS011;3299;42.004;24.868;2022-11-06T10:07:02;59.58;;;35.50;;
6531;SDS011;3299;42.004;24.868;2022-11-06T10:09:28;64.15;;;41.08;;
6531;SDS011;3299;42.004;24.868;2022-11-06T10:12:12;55.92;;;36.97;;
6531;SDS011;3299;42.004;24.868;2022-11-06T10:25:38;43.42;;;28.63;;
6531;SDS011;3299;42.004;24.868;2022-11-06T10:31:14;42.20;;;27.08;;
6531;SDS011;3299;42.004;24.868;2022-11-06T10:33:54;42.42;;;28.08;;
6531;SDS011;3299;42.004;24.868;2022-11-06T10:36:59;44.03;;;28.02;;
6531;SDS011;3299;42.004;24.868;2022-11-06T10:39:25;48.47;;;29.83;;
6531;SDS011;3299;42.004;24.868;2022-11-06T10:41:56;44.72;;;29.25;;
6531;SDS011;3299;42.004;24.868;2022-11-06T10:44:29;52.08;;;30.55;;
6531;SDS011;3299;42.004;24.868;2022-11-06T10:47:23;46.72;;;30.67;;
6531;SDS011;3299;42.004;24.868;2022-11-06T10:49:48;52.28;;;34.15;;
6531;SDS011;3299;42.004;24.868;2022-11-06T10:57:19;49.20;;;30.58;;
6531;SDS011;3299;42.004;24.868;2022-11-06T10:59:49;48.90;;;31.95;;
6531;SDS011;3299;42.004;24.868;2022-11-06T11:02:22;53.25;;;31.50;;
6531;SDS011;3299;42.004;24.868;2022-11-06T11:04:51;55.60;;;31.42;;
6531;SDS011;3299;42.004;24.868;2022-11-06T11:07:17;49.40;;;31.83;;
6531;SDS011;3299;42.004;24.868;2022-11-06T11:09:42;46.45;;;31.73;;
6531;SDS011;3299;42.004;24.868;2022-11-06T11:12:25;46.03;;;31.63;;
6531;SDS011;3299;42.004;24.868;2022-11-06T11:17:35;48.72;;;32.35;;
6531;SDS011;3299;42.004;24.868;2022-11-06T11:20:00;46.97;;;32.80;;
6531;SDS011;3299;42.004;24.868;2022-11-06T11:22:26;51.72;;;33.08;;
6531;SDS011;3299;42.004;24.868;2022-11-06T11:25:04;55.03;;;33.42;;
6531;SDS011;3299;42.004;24.868;2022-11-06T11:27:44;49.95;;;34.42;;
6531;SDS011;3299;42.004;24.868;2022-11-06T11:30:18;52.38;;;32.72;;
6531;SDS011;3299;42.004;24.868;2022-11-06T11:32:46;44.60;;;32.45;;
6531;SDS011;3299;42.004;24.868;2022-11-06T11:35:15;49.28;;;32.88;;
6531;SDS011;3299;42.004;24.868;2022-11-06T11:37:43;48.47;;;29.80;;
6531;SDS011;3299;42.004;24.868;2022-11-06T11:42:47;48.47;;;29.75;;
6531;SDS011;3299;42.004;24.868;2022-11-06T11:45:19;38.50;;;25.95;;
6531;SDS011;3299;42.004;24.868;2022-11-06T11:47:46;45.42;;;28.85;;
6531;SDS011;3299;42.004;24.868;2022-11-06T11:50:17;41.72;;;26.80;;
6531;SDS011;3299;42.004;24.868;2022-11-06T11:52:46;41.42;;;26.83;;
6531;SDS011;3299;42.004;24.868;2022-11-06T11:55:18;45.88;;;26.45;;
6531;SDS011;3299;42.004;24.868;2022-11-06T11:57:48;46.55;;;27.50;;
6531;SDS011;3299;42.004;24.868;2022-11-06T12:00:17;39.15;;;25.50;;
6531;SDS011;3299;42.004;24.868;2022-11-06T12:02:47;43.58;;;27.13;;
6531;SDS011;3299;42.004;24.868;2022-11-06T12:05:23;41.72;;;25.92;;
6531;SDS011;3299;42.004;24.868;2022-11-06T12:07:56;55.05;;;29.73;;
6531;SDS011;3299;42.004;24.868;2022-11-06T12:10:38;41.63;;;26.50;;
6531;SDS011;3299;42.004;24.868;2022-11-06T12:13:08;39.20;;;25.55;;
6531;SDS011;3299;42.004;24.868;2022-11-06T12:18:49;36.33;;;25.50;;
6531;SDS011;3299;42.004;24.868;2022-11-06T12:21:20;36.78;;;24.92;;
6531;SDS011;3299;42.004;24.868;2022-11-06T12:26:25;35.95;;;25.08;;
6531;SDS011;3299;42.004;24.868;2022-11-06T12:29:00;33.00;;;22.63;;
6531;SDS011;3299;42.004;24.868;2022-11-06T12:34:01;38.38;;;24.85;;
6531;SDS011;3299;42.004;24.868;2022-11-06T12:36:31;39.13;;;25.20;;
6531;SDS011;3299;42.004;24.868;2022-11-06T12:39:05;38.72;;;26.60;;
6531;SDS011;3299;42.004;24.868;2022-11-06T12:41:41;36.47;;;25.65;;
6531;SDS011;3299;42.004;24.868;2022-11-06T12:44:09;36.05;;;24.65;;
6531;SDS011;3299;42.004;24.868;2022-11-06T12:46:45;36.47;;;26.10;;
6531;SDS011;3299;42.004;24.868;2022-11-06T12:50:07;38.80;;;26.30;;
6531;SDS011;3299;42.004;24.868;2022-11-06T13:00:33;38.38;;;26.10;;
6531;SDS011;3299;42.004;24.868;2022-11-06T13:06:34;40.20;;;27.23;;
6531;SDS011;3299;42.004;24.868;2022-11-06T13:09:23;44.85;;;28.38;;
6531;SDS011;3299;42.004;24.868;2022-11-06T13:12:00;132.88;;;60.40;;
6531;SDS011;3299;42.004;24.868;2022-11-06T13:17:24;107.78;;;51.92;;
6531;SDS011;3299;42.004;24.868;2022-11-06T13:20:13;52.03;;;33.15;;
6531;SDS011;3299;42.004;24.868;2022-11-06T13:23:03;50.45;;;29.13;;
6531;SDS011;3299;42.004;24.868;2022-11-06T13:25:52;38.40;;;26.73;;
6531;SDS011;3299;42.004;24.868;2022-11-06T13:28:27;41.67;;;26.13;;
6531;SDS011;3299;42.004;24.868;2022-11-06T13:30:57;35.28;;;24.45;;
6531;SDS011;3299;42.004;24.868;2022-11-06T13:33:31;36.10;;;24.98;;
6531;SDS011;3299;42.004;24.868;2022-11-06T13:36:00;44.40;;;28.20;;
6531;SDS011;3299;42.004;24.868;2022-11-06T13:38:27;33.25;;;22.35;;
6531;SDS011;3299;42.004;24.868;2022-11-06T13:41:01;32.38;;;20.42;;
6531;SDS011;3299;42.004;24.868;2022-11-06T13:46:25;28.58;;;19.98;;
6531;SDS011;3299;42.004;24.868;2022-11-06T13:51:42;26.63;;;16.65;;
6531;SDS011;3299;42.004;24.868;2022-11-06T13:57:16;29.23;;;18.80;;
6531;SDS011;3299;42.004;24.868;2022-11-06T14:06:01;34.38;;;22.27;;
6531;SDS011;3299;42.004;24.868;2022-11-06T14:08:31;41.58;;;27.08;;
6531;SDS011;3299;42.004;24.868;2022-11-06T14:11:14;46.25;;;30.23;;
6531;SDS011;3299;42.004;24.868;2022-11-06T14:13:58;44.67;;;30.05;;
6531;SDS011;3299;42.004;24.868;2022-11-06T14:16:43;45.75;;;30.48;;
6531;SDS011;3299;42.004;24.868;2022-11-06T14:19:24;44.60;;;28.92;;
6531;SDS011;3299;42.004;24.868;2022-11-06T14:22:14;49.33;;;29.75;;
6531;SDS011;3299;42.004;24.868;2022-11-06T14:24:41;45.78;;;29.85;;
6531;SDS011;3299;42.004;24.868;2022-11-06T14:27:12;39.35;;;28.00;;
6531;SDS011;3299;42.004;24.868;2022-11-06T14:40:56;47.70;;;30.02;;
6531;SDS011;3299;42.004;24.868;2022-11-06T14:48:28;43.50;;;28.67;;
6531;SDS011;3299;42.004;24.868;2022-11-06T14:51:03;43.13;;;27.20;;
6531;SDS011;3299;42.004;24.868;2022-11-06T14:53:34;39.28;;;26.27;;
6531;SDS011;3299;42.004;24.868;2022-11-06T14:56:02;40.30;;;26.80;;
6531;SDS011;3299;42.004;24.868;2022-11-06T14:58:34;40.95;;;25.92;;
6531;SDS011;3299;42.004;24.868;2022-11-06T15:06:04;40.90;;;26.27;;
6531;SDS011;3299;42.004;24.868;2022-11-06T15:11:09;35.65;;;23.55;;
6531;SDS011;3299;42.004;24.868;2022-11-06T15:16:49;47.33;;;31.38;;
6531;SDS011;3299;42.004;24.868;2022-11-06T15:19:24;50.97;;;32.00;;
6531;SDS011;3299;42.004;24.868;2022-11-06T15:26:53;43.60;;;28.55;;
6531;SDS011;3299;42.004;24.868;2022-11-06T15:29:25;44.38;;;27.05;;
6531;SDS011;3299;42.004;24.868;2022-11-06T15:32:01;38.97;;;24.60;;
6531;SDS011;3299;42.004;24.868;2022-11-06T15:34:36;33.92;;;24.00;;
6531;SDS011;3299;42.004;24.868;2022-11-06T15:37:17;41.20;;;24.95;;
6531;SDS011;3299;42.004;24.868;2022-11-06T15:42:13;35.80;;;24.27;;
6531;SDS011;3299;42.004;24.868;2022-11-06T15:44:41;39.50;;;27.02;;
6531;SDS011;3299;42.004;24.868;2022-11-06T15:47:26;36.53;;;26.88;;
6531;SDS011;3299;42.004;24.868;2022-11-06T15:52:38;39.33;;;25.60;;
6531;SDS011;3299;42.004;24.868;2022-11-06T15:55:04;43.10;;;25.80;;
6531;SDS011;3299;42.004;24.868;2022-11-06T15:57:30;40.33;;;25.92;;
6531;SDS011;3299;42.004;24.868;2022-11-06T16:00:06;50.28;;;27.77;;
6531;SDS011;3299;42.004;24.868;2022-11-06T16:02:48;41.38;;;27.52;;
6531;SDS011;3299;42.004;24.868;2022-11-06T16:05:22;45.17;;;28.67;;
6531;SDS011;3299;42.004;24.868;2022-11-06T16:07:49;39.92;;;26.17;;
6531;SDS011;3299;42.004;24.868;2022-11-06T16:10:16;57.10;;;34.47;;
6531;SDS011;3299;42.004;24.868;2022-11-06T16:12:45;43.17;;;28.88;;
6531;SDS011;3299;42.004;24.868;2022-11-06T16:18:25;156.50;;;96.13;;
6531;SDS011;3299;42.004;24.868;2022-11-06T16:23:53;96.07;;;55.50;;
6531;SDS011;3299;42.004;24.868;2022-11-06T16:26:38;70.15;;;44.90;;
6531;SDS011;3299;42.004;24.868;2022-11-06T16:29:15;54.90;;;36.78;;
6531;SDS011;3299;42.004;24.868;2022-11-06T16:31:44;46.05;;;33.13;;
6531;SDS011;3299;42.004;24.868;2022-11-06T16:34:19;39.22;;;28.90;;
6531;SDS011;3299;42.004;24.868;2022-11-06T16:36:58;43.28;;;31.05;;
6531;SDS011;3299;42.004;24.868;2022-11-06T16:49:29;44.83;;;26.30;;
6531;SDS011;3299;42.004;24.868;2022-11-06T16:51:57;38.60;;;25.85;;
6531;SDS011;3299;42.004;24.868;2022-11-06T16:54:22;38.67;;;26.48;;
6531;SDS011;3299;42.004;24.868;2022-11-06T16:56:52;39.63;;;27.30;;
6531;SDS011;3299;42.004;24.868;2022-11-06T16:59:22;41.22;;;27.48;;
6531;SDS011;3299;42.004;24.868;2022-11-06T17:01:49;40.42;;;28.00;;
6531;SDS011;3299;42.004;24.868;2022-11-06T17:04:19;37.53;;;27.50;;
6531;SDS011;3299;42.004;24.868;2022-11-06T17:06:48;43.20;;;28.00;;
6531;SDS011;3299;42.004;24.868;2022-11-06T17:09:34;36.13;;;26.52;;
6531;SDS011;3299;42.004;24.868;2022-11-06T17:12:00;35.42;;;24.27;;
6531;SDS011;3299;42.004;24.868;2022-11-06T17:14:26;29.85;;;22.67;;
6531;SDS011;3299;42.004;24.868;2022-11-06T17:16:56;35.17;;;24.40;;
6531;SDS011;3299;42.004;24.868;2022-11-06T17:19:24;33.70;;;23.90;;
6531;SDS011;3299;42.004;24.868;2022-11-06T17:21:51;27.83;;;20.20;;
6531;SDS011;3299;42.004;24.868;2022-11-06T17:24:17;29.92;;;20.60;;
6531;SDS011;3299;42.004;24.868;2022-11-06T17:26:44;25.80;;;19.27;;
6531;SDS011;3299;42.004;24.868;2022-11-06T17:29:11;35.80;;;23.55;;